createdAt,value
2022-08-21T00:00:44.237Z,2.30
2022-08-21T00:03:12.372Z,2.43
2022-08-21T00:05:42.254Z,2.53
2022-08-21T00:08:10.208Z,1.93
2022-08-21T00:10:36.814Z,2.30
2022-08-21T00:13:06.327Z,2.43
2022-08-21T00:15:35.022Z,2.57
2022-08-21T00:18:02.145Z,2.60
2022-08-21T00:20:29.525Z,3.10
2022-08-21T00:22:56.085Z,3.00
2022-08-21T00:25:26.155Z,3.20
2022-08-21T00:27:53.190Z,3.17
2022-08-21T00:30:23.247Z,3.10
2022-08-21T00:32:51.346Z,2.90
2022-08-21T00:35:21.265Z,3.00
2022-08-21T00:37:47.792Z,2.90
2022-08-21T00:40:18.315Z,3.00
2022-08-21T00:42:53.194Z,2.97
2022-08-21T00:45:22.769Z,3.30
2022-08-21T00:47:50.892Z,2.77
2022-08-21T00:50:21.607Z,3.47
2022-08-21T00:52:50.742Z,3.20
2022-08-21T00:55:17.738Z,3.10
2022-08-21T00:57:50.402Z,3.50
2022-08-21T01:00:22.508Z,3.40
2022-08-21T01:02:49.044Z,3.27
2022-08-21T01:05:15.992Z,3.40
2022-08-21T01:07:43.203Z,3.53
2022-08-21T01:10:13.987Z,3.70
2022-08-21T01:12:52.936Z,3.90
2022-08-21T01:15:22.680Z,3.90
2022-08-21T01:17:50.485Z,3.63
2022-08-21T01:20:17.951Z,3.90
2022-08-21T01:22:44.529Z,3.87
2022-08-21T01:25:13.258Z,3.27
2022-08-21T01:27:40.049Z,3.30
2022-08-21T01:30:16.976Z,3.47
2022-08-21T01:32:44.233Z,3.50
2022-08-21T01:35:13.995Z,3.87
2022-08-21T01:37:40.872Z,3.63
2022-08-21T01:40:09.978Z,3.60
2022-08-21T01:42:38.124Z,3.67
2022-08-21T01:45:06.870Z,4.00
2022-08-21T01:47:33.908Z,3.87
2022-08-21T01:50:01.020Z,4.17
2022-08-21T01:52:27.886Z,4.30
2022-08-21T01:54:55.695Z,4.17
2022-08-21T01:57:22.870Z,3.90
2022-08-21T01:59:53.133Z,4.40
2022-08-21T02:02:19.941Z,3.90
2022-08-21T02:04:46.507Z,4.10
2022-08-21T02:07:13.305Z,4.10
2022-08-21T02:09:40.140Z,3.93
2022-08-21T02:12:07.092Z,3.93
2022-08-21T02:14:33.668Z,3.60
2022-08-21T02:17:08.858Z,3.90
2022-08-21T02:19:37.856Z,3.90
2022-08-21T02:22:09.735Z,3.60
2022-08-21T02:24:53.715Z,3.87
2022-08-21T02:27:26.846Z,3.73
2022-08-21T02:29:58.323Z,4.00
2022-08-21T02:32:25.356Z,3.70
2022-08-21T02:34:52.008Z,3.90
2022-08-21T02:37:18.565Z,3.93
2022-08-21T02:39:45.190Z,3.90
2022-08-21T02:42:11.780Z,4.00
2022-08-21T02:44:38.314Z,4.00
2022-08-21T02:47:05.249Z,4.03
2022-08-21T02:49:31.767Z,4.10
2022-08-21T02:51:58.362Z,5.00
2022-08-21T02:54:25.101Z,3.97
2022-08-21T02:56:51.591Z,4.10
2022-08-21T02:59:18.189Z,4.13
2022-08-21T03:01:45.366Z,4.33
2022-08-21T03:04:11.968Z,4.27
2022-08-21T03:06:38.479Z,3.77
2022-08-21T03:09:05.154Z,3.90
2022-08-21T03:11:31.685Z,3.83
2022-08-21T03:13:58.233Z,4.13
2022-08-21T03:16:24.755Z,4.30
2022-08-21T03:18:51.298Z,3.90
2022-08-21T03:21:19.893Z,3.83
2022-08-21T03:23:46.775Z,3.73
2022-08-21T03:26:13.489Z,3.90
2022-08-21T03:28:40.774Z,3.63
2022-08-21T03:31:07.376Z,3.40
2022-08-21T03:33:33.974Z,3.30
2022-08-21T03:36:07.067Z,3.17
2022-08-21T03:38:35.222Z,3.27
2022-08-21T03:41:02.541Z,3.33
2022-08-21T03:43:31.093Z,3.47
2022-08-21T03:46:00.939Z,3.27
2022-08-21T03:48:27.561Z,3.40
2022-08-21T03:50:54.555Z,3.30
2022-08-21T03:53:21.808Z,3.50
2022-08-21T03:55:50.405Z,3.63
2022-08-21T03:58:19.457Z,3.23
2022-08-21T04:00:48.392Z,3.33
2022-08-21T04:03:15.167Z,3.63
2022-08-21T04:05:42.075Z,3.53
2022-08-21T04:08:08.778Z,3.83
2022-08-21T04:10:37.711Z,4.20
2022-08-21T04:13:05.497Z,4.27
2022-08-21T04:15:32.020Z,3.80
2022-08-21T04:17:58.841Z,4.30
2022-08-21T04:20:26.393Z,4.10
2022-08-21T04:22:53.432Z,4.33
2022-08-21T04:25:22.729Z,3.97
2022-08-21T04:27:49.268Z,4.43
2022-08-21T04:30:17.027Z,4.37
2022-08-21T04:32:49.991Z,4.90
2022-08-21T04:35:19.343Z,5.27
2022-08-21T04:37:45.877Z,4.60
2022-08-21T04:40:14.402Z,4.70
2022-08-21T04:42:50.651Z,4.20
2022-08-21T04:45:29.947Z,3.70
2022-08-21T04:47:59.257Z,3.50
2022-08-21T04:50:40.468Z,4.20
2022-08-21T04:53:11.317Z,3.90
2022-08-21T04:55:38.909Z,3.93
2022-08-21T04:58:10.299Z,4.13
2022-08-21T05:00:37.991Z,4.27
2022-08-21T05:03:07.664Z,4.13
2022-08-21T05:05:35.448Z,4.23
2022-08-21T05:08:04.118Z,3.70
2022-08-21T05:10:32.643Z,3.80
2022-08-21T05:12:59.944Z,4.20
2022-08-21T05:15:26.700Z,4.33
2022-08-21T05:18:00.566Z,4.10
2022-08-21T05:20:28.348Z,4.50
2022-08-21T05:22:55.050Z,4.20
2022-08-21T05:25:23.842Z,4.23
2022-08-21T05:27:52.252Z,4.03
2022-08-21T05:30:20.228Z,3.90
2022-08-21T05:32:47.331Z,3.90
2022-08-21T05:35:14.712Z,4.13
2022-08-21T05:37:41.383Z,4.30
2022-08-21T05:40:21.350Z,4.07
2022-08-21T05:42:55.362Z,3.97
2022-08-21T05:45:42.159Z,3.50
2022-08-21T05:48:20.902Z,3.83
2022-08-21T05:50:49.175Z,3.67
2022-08-21T05:53:17.296Z,3.70
2022-08-21T05:55:46.533Z,3.53
2022-08-21T05:58:18.611Z,3.20
2022-08-21T06:00:48.491Z,3.53
2022-08-21T06:03:22.292Z,3.40
2022-08-21T06:05:49.407Z,3.10
2022-08-21T06:08:17.979Z,2.73
2022-08-21T06:10:46.241Z,2.90
2022-08-21T06:13:13.656Z,3.00
2022-08-21T06:15:40.776Z,3.10
2022-08-21T06:18:07.914Z,2.77
2022-08-21T06:20:35.303Z,2.50
2022-08-21T06:23:02.427Z,2.53
2022-08-21T06:25:30.081Z,2.30
2022-08-21T06:28:07.662Z,2.67
2022-08-21T06:30:37.057Z,2.47
2022-08-21T06:33:08.207Z,2.20
2022-08-21T06:35:35.966Z,2.67
2022-08-21T06:38:03.091Z,2.73
2022-08-21T06:40:34.230Z,2.40
2022-08-21T06:43:15.447Z,2.93
2022-08-21T06:45:42.310Z,2.70
2022-08-21T06:48:08.909Z,2.40
2022-08-21T06:50:35.920Z,2.47
2022-08-21T06:53:07.661Z,2.40
2022-08-21T06:55:34.854Z,2.10
2022-08-21T06:58:01.857Z,2.20
2022-08-21T07:00:28.525Z,1.93
2022-08-21T07:02:55.516Z,2.17
2022-08-21T07:05:23.102Z,2.10
2022-08-21T07:07:49.665Z,2.20
2022-08-21T07:10:22.378Z,2.40
2022-08-21T07:12:49.965Z,2.13
2022-08-21T07:15:18.296Z,2.00
2022-08-21T07:17:45.015Z,2.20
2022-08-21T07:20:13.364Z,1.97
2022-08-21T07:22:42.335Z,2.30
2022-08-21T07:25:09.401Z,2.17
2022-08-21T07:27:36.137Z,2.00
2022-08-21T07:30:03.775Z,2.33
2022-08-21T07:32:30.491Z,2.20
2022-08-21T07:34:57.559Z,2.37
2022-08-21T07:37:24.115Z,1.80
2022-08-21T07:39:52.141Z,2.20
2022-08-21T07:42:19.035Z,2.10
2022-08-21T07:44:45.631Z,2.40
2022-08-21T07:47:12.195Z,2.23
2022-08-21T07:49:38.862Z,2.27
2022-08-21T07:52:05.459Z,2.10
2022-08-21T07:54:33.864Z,2.20
2022-08-21T07:57:02.052Z,2.10
2022-08-21T07:59:28.867Z,2.47
2022-08-21T08:01:55.807Z,2.30
2022-08-21T08:04:26.337Z,2.33
2022-08-21T08:06:53.677Z,2.13
2022-08-21T08:09:20.980Z,2.57
2022-08-21T08:11:47.552Z,2.20
2022-08-21T08:14:14.099Z,1.97
2022-08-21T08:16:40.691Z,2.37
2022-08-21T08:19:07.295Z,2.00
2022-08-21T08:21:34.679Z,2.27
2022-08-21T08:24:01.544Z,2.23
2022-08-21T08:26:46.223Z,2.20
2022-08-21T08:29:20.568Z,2.27
2022-08-21T08:31:47.068Z,2.97
2022-08-21T08:34:25.077Z,2.27
2022-08-21T08:36:52.789Z,2.37
2022-08-21T08:39:26.433Z,2.00
2022-08-21T08:42:02.997Z,2.63
2022-08-21T08:44:51.411Z,2.60
2022-08-21T08:47:19.708Z,2.60
2022-08-21T08:50:01.484Z,2.13
2022-08-21T08:52:35.274Z,2.33
2022-08-21T08:55:05.605Z,2.40
2022-08-21T08:57:33.456Z,2.50
2022-08-21T09:00:04.942Z,2.80
2022-08-21T09:02:34.545Z,2.70
2022-08-21T09:05:02.146Z,2.17
2022-08-21T09:07:35.420Z,2.30
2022-08-21T09:10:13.363Z,2.67
2022-08-21T09:13:08.118Z,2.80
2022-08-21T09:15:48.051Z,2.70
2022-08-21T09:18:36.365Z,2.97
2022-08-21T09:21:42.055Z,2.33
2022-08-21T09:24:19.668Z,2.27
2022-08-21T09:27:07.154Z,2.90
2022-08-21T09:29:38.301Z,2.63
2022-08-21T09:32:37.757Z,2.40
2022-08-21T09:35:17.769Z,2.70
2022-08-21T09:37:50.208Z,2.53
2022-08-21T09:40:28.820Z,2.40
2022-08-21T09:43:20.276Z,2.20
2022-08-21T09:45:49.030Z,2.30
2022-08-21T09:48:26.173Z,2.07
2022-08-21T09:50:54.784Z,2.20
2022-08-21T09:53:25.438Z,2.10
2022-08-21T09:56:17.251Z,2.00
2022-08-21T09:58:49.813Z,2.30
2022-08-21T10:01:23.267Z,2.20
2022-08-21T10:04:02.441Z,2.03
2022-08-21T10:06:29.584Z,2.00
2022-08-21T10:09:05.194Z,2.13
2022-08-21T10:11:33.000Z,2.00
2022-08-21T10:14:30.473Z,1.87
2022-08-21T10:17:22.491Z,1.80
2022-08-21T10:20:01.216Z,2.20
2022-08-21T10:23:03.441Z,1.90
2022-08-21T10:25:38.966Z,1.97
2022-08-21T10:28:23.109Z,1.87
2022-08-21T10:30:52.092Z,2.13
2022-08-21T10:33:21.478Z,2.30
2022-08-21T10:36:21.372Z,1.80
2022-08-21T10:39:23.299Z,2.07
2022-08-21T10:42:00.003Z,2.20
2022-08-21T10:44:48.261Z,2.30
2022-08-21T10:47:34.971Z,1.80
2022-08-21T10:50:13.685Z,2.30
2022-08-21T10:52:57.569Z,1.80
2022-08-21T10:55:31.423Z,1.97
2022-08-21T10:58:11.521Z,2.20
2022-08-21T11:00:43.850Z,1.93
2022-08-21T11:03:22.597Z,2.20
2022-08-21T11:05:54.331Z,1.83
2022-08-21T11:08:30.314Z,1.93
2022-08-21T11:11:06.592Z,1.80
2022-08-21T11:13:52.931Z,1.50
2022-08-21T11:16:42.747Z,1.80
2022-08-21T11:19:20.340Z,1.80
2022-08-21T11:21:47.615Z,2.00
2022-08-21T11:24:22.970Z,1.47
2022-08-21T11:27:27.727Z,1.57
2022-08-21T11:30:00.242Z,1.77
2022-08-21T11:32:51.462Z,1.37
2022-08-21T11:35:44.686Z,1.50
2022-08-21T11:38:35.934Z,1.60
2022-08-21T11:41:30.538Z,1.57
2022-08-21T11:44:06.099Z,1.80
2022-08-21T11:46:48.445Z,1.40
2022-08-21T11:49:50.055Z,1.50
2022-08-21T11:52:23.563Z,1.60
2022-08-21T11:54:55.238Z,1.40
2022-08-21T11:57:28.713Z,1.60
2022-08-21T12:00:14.577Z,1.33
2022-08-21T12:02:48.803Z,1.30
2022-08-21T12:05:41.921Z,1.40
2022-08-21T12:08:30.676Z,1.43
2022-08-21T12:11:09.588Z,1.37
2022-08-21T12:13:42.461Z,1.40
2022-08-21T12:16:29.208Z,1.10
2022-08-21T12:19:29.214Z,1.50
2022-08-21T12:22:06.363Z,1.47
2022-08-21T12:24:48.942Z,1.37
2022-08-21T12:27:21.109Z,1.27
2022-08-21T12:29:55.151Z,1.23
2022-08-21T12:32:29.481Z,1.30
2022-08-21T12:35:03.638Z,1.10
2022-08-21T12:37:42.908Z,1.23
2022-08-21T12:40:23.579Z,1.23
2022-08-21T12:42:59.186Z,1.10
2022-08-21T12:45:38.033Z,1.40
2022-08-21T12:48:15.280Z,1.30
2022-08-21T12:50:48.989Z,1.43
2022-08-21T12:53:27.793Z,1.30
2022-08-21T12:56:00.692Z,1.10
2022-08-21T12:58:27.302Z,1.30
2022-08-21T13:01:02.787Z,1.07
2022-08-21T13:03:30.108Z,1.23
2022-08-21T13:05:57.564Z,1.60
2022-08-21T13:08:27.633Z,1.20
2022-08-21T13:11:13.597Z,1.10
2022-08-21T13:13:46.941Z,1.40
2022-08-21T13:16:25.276Z,1.33
2022-08-21T13:19:06.441Z,1.30
2022-08-21T13:21:36.289Z,1.20
2022-08-21T13:24:31.992Z,1.37
2022-08-21T13:26:58.464Z,1.30
2022-08-21T13:29:31.504Z,1.63
2022-08-21T13:32:02.837Z,1.50
2022-08-21T13:34:36.089Z,1.33
2022-08-21T13:37:08.548Z,1.37
2022-08-21T13:39:35.243Z,1.13
2022-08-21T13:42:06.104Z,1.40
2022-08-21T13:44:32.768Z,1.33
2022-08-21T13:47:03.424Z,1.30
2022-08-21T13:49:40.229Z,1.40
2022-08-21T13:52:18.828Z,1.20
2022-08-21T13:54:53.057Z,1.20
2022-08-21T13:57:25.770Z,1.20
2022-08-21T13:59:52.698Z,1.13
2022-08-21T14:02:23.812Z,1.10
2022-08-21T14:05:01.220Z,1.27
2022-08-21T14:07:34.405Z,1.30
2022-08-21T14:10:29.053Z,0.97
2022-08-21T14:13:05.002Z,1.70
2022-08-21T14:15:34.846Z,1.07
2022-08-21T14:18:20.662Z,1.10
2022-08-21T14:20:47.311Z,1.60
2022-08-21T14:23:26.259Z,1.40
2022-08-21T14:25:53.840Z,1.40
2022-08-21T14:28:52.900Z,1.20
2022-08-21T14:31:22.201Z,1.03
2022-08-21T14:33:49.048Z,0.93
2022-08-21T14:36:17.989Z,1.13
2022-08-21T14:38:45.649Z,1.00
2022-08-21T14:41:19.548Z,0.90
2022-08-21T14:43:57.749Z,1.30
2022-08-21T14:46:55.370Z,1.40
2022-08-21T14:49:27.734Z,1.20
2022-08-21T14:51:58.357Z,1.30
2022-08-21T14:54:28.130Z,1.10
2022-08-21T14:57:01.680Z,1.27
2022-08-21T14:59:28.581Z,1.33
2022-08-21T15:01:55.173Z,1.23
2022-08-21T15:04:21.724Z,1.23
2022-08-21T15:06:48.321Z,1.30
2022-08-21T15:09:14.879Z,1.20
2022-08-21T15:11:43.277Z,1.03
2022-08-21T15:14:15.262Z,1.07
2022-08-21T15:16:42.907Z,1.90
2022-08-21T15:19:09.514Z,1.50
2022-08-21T15:21:36.033Z,1.30
2022-08-21T15:24:02.768Z,1.60
2022-08-21T15:26:29.463Z,1.10
2022-08-21T15:28:55.978Z,1.23
2022-08-21T15:31:22.714Z,1.37
2022-08-21T15:33:51.003Z,1.10
2022-08-21T15:36:17.655Z,1.30
2022-08-21T15:38:45.517Z,1.23
2022-08-21T15:41:13.480Z,1.30
2022-08-21T15:43:50.132Z,1.30
2022-08-21T15:46:19.404Z,1.20
2022-08-21T15:48:47.227Z,1.47
2022-08-21T15:51:15.879Z,1.20
2022-08-21T15:53:43.040Z,1.37
2022-08-21T15:56:23.788Z,1.40
2022-08-21T15:58:58.749Z,1.37
2022-08-21T16:01:25.406Z,1.50
2022-08-21T16:03:54.905Z,1.30
2022-08-21T16:06:37.619Z,1.60
2022-08-21T16:09:08.863Z,1.50
2022-08-21T16:11:35.504Z,1.73
2022-08-21T16:14:02.132Z,1.80
2022-08-21T16:16:31.691Z,2.23
2022-08-21T16:18:58.482Z,3.47
2022-08-21T16:22:17.706Z,3.90
2022-08-21T16:24:44.262Z,3.80
2022-08-21T16:27:11.597Z,3.27
2022-08-21T16:29:40.004Z,2.60
2022-08-21T16:32:09.049Z,2.03
2022-08-21T16:34:36.748Z,2.07
2022-08-21T16:37:03.412Z,1.63
2022-08-21T16:39:30.208Z,1.67
2022-08-21T16:41:56.819Z,1.77
2022-08-21T16:44:23.545Z,1.80
2022-08-21T16:46:50.334Z,2.07
2022-08-21T16:49:17.172Z,2.03
2022-08-21T16:51:43.916Z,1.93
2022-08-21T16:54:11.581Z,2.23
2022-08-21T16:56:40.454Z,2.20
2022-08-21T16:59:08.124Z,2.30
2022-08-21T17:01:37.296Z,2.43
2022-08-21T17:04:05.067Z,1.93
2022-08-21T17:06:32.387Z,2.17
2022-08-21T17:08:59.655Z,2.17
2022-08-21T17:11:38.489Z,2.30
2022-08-21T17:14:12.574Z,1.83
2022-08-21T17:16:41.751Z,2.30
2022-08-21T17:19:08.558Z,2.37
2022-08-21T17:21:35.576Z,2.40
2022-08-21T17:24:02.204Z,2.73
2022-08-21T17:26:28.759Z,2.63
2022-08-21T17:28:55.415Z,2.67
2022-08-21T17:31:22.328Z,2.63
2022-08-21T17:33:53.191Z,2.70
2022-08-21T17:36:23.086Z,2.57
2022-08-21T17:38:50.255Z,2.87
2022-08-21T17:41:17.803Z,2.70
2022-08-21T17:43:44.910Z,2.80
2022-08-21T17:46:18.157Z,2.73
2022-08-21T17:48:47.446Z,2.50
2022-08-21T17:51:14.586Z,2.47
2022-08-21T17:53:41.238Z,2.60
2022-08-21T17:56:08.596Z,2.70
2022-08-21T17:58:35.334Z,2.40
2022-08-21T18:01:05.985Z,2.50
2022-08-21T18:03:37.289Z,2.30
2022-08-21T18:06:05.922Z,2.67
2022-08-21T18:08:32.952Z,2.80
2022-08-21T18:11:01.056Z,2.80
2022-08-21T18:13:32.538Z,2.40
2022-08-21T18:16:00.319Z,2.73
2022-08-21T18:18:32.862Z,2.83
2022-08-21T18:20:59.492Z,3.00
2022-08-21T18:23:44.080Z,3.10
2022-08-21T18:26:15.048Z,2.90
2022-08-21T18:28:41.944Z,3.10
2022-08-21T18:31:10.878Z,2.90
2022-08-21T18:33:38.569Z,3.00
2022-08-21T18:36:05.738Z,2.43
2022-08-21T18:38:33.050Z,3.20
2022-08-21T18:40:59.830Z,3.20
2022-08-21T18:43:26.968Z,3.27
2022-08-21T18:45:54.051Z,3.33
2022-08-21T18:48:20.809Z,3.37
2022-08-21T18:50:48.401Z,2.70
2022-08-21T18:53:27.325Z,3.30
2022-08-21T18:56:06.663Z,2.73
2022-08-21T18:58:35.320Z,2.60
2022-08-21T19:01:02.126Z,3.10
2022-08-21T19:03:29.464Z,2.80
2022-08-21T19:05:56.545Z,3.20
2022-08-21T19:08:27.664Z,3.20
2022-08-21T19:10:58.715Z,2.73
2022-08-21T19:13:28.773Z,2.90
2022-08-21T19:15:57.178Z,3.00
2022-08-21T19:18:28.257Z,3.10
2022-08-21T19:20:57.381Z,3.10
2022-08-21T19:23:28.933Z,2.43
2022-08-21T19:28:51.420Z,3.23
2022-08-21T19:34:16.908Z,2.30
2022-08-21T19:36:44.431Z,2.43
2022-08-21T19:39:12.742Z,2.43
2022-08-21T19:41:42.758Z,2.60
2022-08-21T19:44:16.313Z,2.53
2022-08-21T19:46:44.903Z,2.70
2022-08-21T19:49:15.329Z,2.97
2022-08-21T19:51:42.714Z,2.50
2022-08-21T19:54:23.345Z,2.63
2022-08-21T19:56:50.606Z,2.67
2022-08-21T19:59:24.879Z,2.97
2022-08-21T20:01:51.954Z,3.10
2022-08-21T20:04:19.471Z,2.87
2022-08-21T20:07:08.180Z,2.50
2022-08-21T20:09:37.266Z,2.57
2022-08-21T20:12:10.244Z,2.50
2022-08-21T20:14:42.677Z,2.60
2022-08-21T20:17:11.878Z,2.80
2022-08-21T20:19:41.084Z,2.57
2022-08-21T20:22:08.415Z,2.80
2022-08-21T20:24:35.942Z,2.70
2022-08-21T20:27:06.040Z,2.70
2022-08-21T20:32:22.269Z,2.97
2022-08-21T20:34:51.871Z,3.10
2022-08-21T20:37:35.960Z,2.80
2022-08-21T20:40:10.366Z,2.50
2022-08-21T20:42:39.075Z,2.90
2022-08-21T20:45:08.131Z,2.83
2022-08-21T20:47:36.440Z,3.33
2022-08-21T20:50:12.994Z,3.30
2022-08-21T20:52:41.341Z,3.30
2022-08-21T20:55:14.194Z,3.50
2022-08-21T20:58:23.002Z,2.57
2022-08-21T21:00:58.877Z,3.60
2022-08-21T21:03:51.191Z,3.40
2022-08-21T21:06:26.126Z,3.20
2022-08-21T21:08:58.209Z,3.00
2022-08-21T21:11:32.030Z,3.13
2022-08-21T21:14:27.085Z,3.40
2022-08-21T21:17:00.208Z,2.67
2022-08-21T21:19:48.851Z,3.00
2022-08-21T21:22:55.106Z,3.50
2022-08-21T21:25:24.898Z,3.40
2022-08-21T21:28:04.408Z,2.83
2022-08-21T21:30:36.505Z,3.47
2022-08-21T21:33:04.567Z,3.80
2022-08-21T21:35:38.843Z,3.60
2022-08-21T21:38:20.659Z,4.13
2022-08-21T21:41:10.857Z,3.13
2022-08-21T21:44:08.521Z,3.30
2022-08-21T21:46:52.151Z,3.60
2022-08-21T21:49:40.749Z,3.10
2022-08-21T21:52:28.749Z,3.33
2022-08-21T21:55:39.767Z,3.13
2022-08-21T21:58:18.240Z,3.40
2022-08-21T22:00:52.519Z,3.10
2022-08-21T22:03:22.923Z,3.43
2022-08-21T22:06:00.395Z,3.40
2022-08-21T22:08:50.590Z,3.30
2022-08-21T22:11:45.094Z,3.50
2022-08-21T22:14:22.797Z,3.40
2022-08-21T22:16:51.264Z,3.03
2022-08-21T22:19:29.444Z,3.57
2022-08-21T22:22:06.032Z,3.30
2022-08-21T22:24:40.407Z,3.90
2022-08-21T22:27:12.692Z,4.17
2022-08-21T22:30:00.054Z,3.70
2022-08-21T22:32:32.689Z,3.70
2022-08-21T22:35:25.961Z,3.70
2022-08-21T22:37:58.693Z,3.10
2022-08-21T22:40:29.466Z,2.90
2022-08-21T22:43:02.545Z,3.27
2022-08-21T22:45:30.976Z,3.00
2022-08-21T22:48:05.890Z,3.30
2022-08-21T22:50:41.351Z,3.03
2022-08-21T22:53:09.353Z,3.40
2022-08-21T22:55:44.057Z,3.00
2022-08-21T22:58:26.845Z,3.27
2022-08-21T23:01:22.317Z,3.17
2022-08-21T23:03:53.836Z,2.93
2022-08-21T23:07:06.040Z,3.30
2022-08-21T23:09:47.186Z,3.57
2022-08-21T23:15:20.787Z,3.17
2022-08-21T23:18:01.003Z,3.07
2022-08-21T23:20:40.211Z,3.30
2022-08-21T23:23:24.226Z,3.83
2022-08-21T23:26:17.386Z,3.37
2022-08-21T23:29:03.049Z,3.50
2022-08-21T23:32:13.419Z,3.53
2022-08-21T23:35:15.003Z,3.37
2022-08-21T23:38:09.428Z,3.30
2022-08-21T23:40:58.660Z,3.53
2022-08-21T23:43:43.742Z,3.20
2022-08-21T23:46:32.386Z,3.83
2022-08-21T23:49:17.734Z,3.10
2022-08-21T23:52:22.199Z,3.13
2022-08-21T23:54:52.625Z,3.50
2022-08-21T23:57:41.072Z,3.07
